Time;durP1;ratioP1;P1;durP2;ratioP2;P2;SDS_P1;SDS_P2;PMS_P1;PMS_P2;Temp;Humidity;BMP_temperature;BMP_pressure;BME280_temperature;BME280_humidity;BME280_pressure;Samples;Min_cycle;Max_cycle;Signal;HPM_P1;HPM_P2
2023/02/05 00:00:51;;;;;;;6.18;4.10;;;;;;;-1.48;100.00;100795.31;5012268;28;20108;-76
2023/02/05 00:03:16;;;;;;;7.10;4.07;;;;;;;-1.98;100.00;100749.72;5001849;28;20486;-77
2023/02/05 00:05:42;;;;;;;5.60;3.47;;;;;;;-1.91;100.00;100768.13;5007835;28;20041;-76
2023/02/05 00:08:07;;;;;;;7.47;4.30;;;;;;;-2.07;100.00;100780.94;5007434;28;20516;-75
2023/02/05 00:10:33;;;;;;;9.18;5.60;;;;;;;-1.73;100.00;100872.88;5011119;28;20040;-77
2023/02/05 00:12:58;;;;;;;11.02;4.55;;;;;;;-1.40;100.00;100945.91;5009799;28;20045;-76
2023/02/05 00:15:24;;;;;;;7.25;4.68;;;;;;;-1.53;100.00;100902.28;4995392;28;20054;-77
2023/02/05 00:17:49;;;;;;;8.77;4.40;;;;;;;-1.40;100.00;100956.22;5008413;28;20056;-76
2023/02/05 00:20:15;;;;;;;6.55;4.35;;;;;;;-1.44;100.00;100950.81;5008710;28;20037;-78
2023/02/05 00:22:40;;;;;;;6.88;3.25;;;;;;;-2.27;100.00;100802.03;5000974;28;20464;-76
2023/02/05 00:25:06;;;;;;;6.18;3.63;;;;;;;-2.08;100.00;100837.38;5005502;28;20062;-77
2023/02/05 00:27:32;;;;;;;4.03;3.42;;;;;;;-2.22;100.00;100804.09;5001434;28;20037;-77
2023/02/05 00:29:58;;;;;;;9.63;3.55;;;;;;;-1.38;100.00;100962.34;5005967;28;20046;-76
2023/02/05 00:32:23;;;;;;;6.82;3.90;;;;;;;-1.59;100.00;100949.13;5009402;28;20433;-76
2023/02/05 00:34:49;;;;;;;6.57;3.90;;;;;;;-1.66;100.00;100918.72;5002111;28;20107;-77
2023/02/05 00:37:14;;;;;;;6.28;4.13;;;;;;;-1.51;100.00;100960.75;5000445;28;20156;-77
2023/02/05 00:39:40;;;;;;;6.30;2.78;;;;;;;-1.56;100.00;100964.75;5008377;28;20461;-78
2023/02/05 00:42:05;;;;;;;8.63;4.25;;;;;;;-4.01;100.00;100530.09;5003009;28;20038;-75
2023/02/05 00:44:31;;;;;;;9.25;5.38;;;;;;;-1.74;100.00;100923.41;4996711;28;20034;-75
2023/02/05 00:46:56;;;;;;;4.95;3.17;;;;;;;-1.71;100.00;100936.47;5007123;28;20061;-78
2023/02/05 00:49:22;;;;;;;4.57;3.83;;;;;;;-1.60;100.00;100944.78;5008344;28;20048;-76
2023/02/05 00:51:47;;;;;;;13.15;3.08;;;;;;;-1.53;100.00;100964.91;4996191;28;20105;-77
2023/02/05 00:54:13;;;;;;;4.32;2.88;;;;;;;-2.36;100.00;100823.84;5009014;28;20413;-81
2023/02/05 00:56:38;;;;;;;6.78;5.10;;;;;;;-2.65;100.00;100754.47;5005538;28;20076;-77
2023/02/05 00:59:04;;;;;;;5.07;2.58;;;;;;;-2.45;100.00;100804.44;5003754;28;20041;-78
2023/02/05 01:01:29;;;;;;;4.50;2.20;;;;;;;-2.21;100.00;100846.09;5010300;28;20045;-76
2023/02/05 01:03:55;;;;;;;6.85;3.25;;;;;;;-2.39;100.00;100845.91;5007801;28;20053;-78
2023/02/05 01:06:20;;;;;;;7.35;3.95;;;;;;;-2.48;100.00;100809.38;5007314;28;20639;-82
2023/02/05 01:08:46;;;;;;;4.90;3.22;;;;;;;-1.50;100.00;100992.50;5003487;28;20152;-77
2023/02/05 01:11:12;;;;;;;5.40;2.78;;;;;;;-1.39;100.00;100985.41;5007569;28;20441;-78
2023/02/05 01:13:37;;;;;;;8.45;4.00;;;;;;;-2.55;100.00;100816.75;5008751;28;20119;-79
2023/02/05 01:16:05;;;;;;;4.43;2.45;;;;;;;-1.58;100.00;100986.03;5008143;28;20049;-76
2023/02/05 01:18:30;;;;;;;3.70;2.00;;;;;;;-1.79;100.00;100931.66;5003779;28;20081;-75
2023/02/05 01:20:56;;;;;;;7.97;4.55;;;;;;;-1.54;100.00;100996.59;4999992;28;20078;-77
2023/02/05 01:23:21;;;;;;;6.63;2.90;;;;;;;-1.58;100.00;100989.50;5004808;28;20056;-75
2023/02/05 01:25:47;;;;;;;6.05;3.03;;;;;;;-1.52;100.00;100994.13;5006550;28;20033;-79
2023/02/05 01:28:12;;;;;;;5.53;2.97;;;;;;;-1.50;100.00;101000.22;4992441;28;20104;-77
2023/02/05 01:30:38;;;;;;;5.93;3.80;;;;;;;-1.58;100.00;101001.47;5000760;28;20129;-77
2023/02/05 01:33:04;;;;;;;4.38;2.50;;;;;;;-1.82;100.00;100996.66;5005711;28;20049;-77
2023/02/05 01:35:29;;;;;;;4.60;2.83;;;;;;;-1.65;100.00;101017.34;4999248;28;20048;-76
2023/02/05 01:37:55;;;;;;;3.97;2.33;;;;;;;-1.85;100.00;100986.22;4997493;28;20029;-79
2023/02/05 01:40:21;;;;;;;5.32;2.67;;;;;;;-1.92;100.00;100969.53;5001479;28;20561;-77
2023/02/05 01:42:46;;;;;;;4.60;2.78;;;;;;;-1.71;100.00;100999.84;5016829;28;20050;-78
2023/02/05 01:45:53;;;;;;;9.15;4.10;;;;;;;-1.70;100.00;101014.50;4994798;28;20050;-77
2023/02/05 01:48:23;;;;;;;6.18;2.80;;;;;;;-1.85;100.00;100993.94;4996553;28;20137;-76
2023/02/05 01:51:12;;;;;;;3.50;2.10;;;;;;;-1.79;100.00;101022.56;5007841;28;20034;-79
2023/02/05 01:53:39;;;;;;;5.00;2.80;;;;;;;-2.78;100.00;100869.31;5004114;28;20069;-78
2023/02/05 01:56:13;;;;;;;4.80;2.92;;;;;;;-1.76;100.00;101034.72;4997300;28;20038;-78
2023/02/05 01:58:45;;;;;;;4.00;2.53;;;;;;;-3.07;100.00;100810.16;4997160;28;20042;-75
2023/02/05 02:01:10;;;;;;;5.28;2.15;;;;;;;-2.50;100.00;100921.47;5000952;28;20045;-76
2023/02/05 02:03:37;;;;;;;4.00;1.98;;;;;;;-1.79;100.00;101044.84;5007321;28;20056;-79
2023/02/05 02:06:03;;;;;;;4.28;3.40;;;;;;;-2.26;100.00;100955.47;5001402;28;20141;-79
2023/02/05 02:08:32;;;;;;;4.85;2.88;;;;;;;-2.72;100.00;100902.16;4991562;28;20039;-77
2023/02/05 02:11:00;;;;;;;4.82;2.22;;;;;;;-2.50;100.00;100944.59;4999872;28;20509;-77
2023/02/05 02:13:28;;;;;;;6.35;3.15;;;;;;;-2.77;100.00;100911.28;4995169;28;20046;-79
2023/02/05 02:15:55;;;;;;;4.35;2.45;;;;;;;-1.96;100.00;101057.56;5004762;28;20045;-79
2023/02/05 02:18:27;;;;;;;7.60;2.97;;;;;;;-1.74;100.00;101087.16;5001565;28;20050;-79
2023/02/05 02:20:59;;;;;;;4.32;2.25;;;;;;;-1.75;100.00;101086.25;5006841;28;20515;-80
2023/02/05 02:23:32;;;;;;;1.88;1.27;;;;;;;-2.64;100.00;100939.50;4996545;28;20135;-76
2023/02/05 02:26:30;;;;;;;4.40;2.92;;;;;;;-2.68;100.00;100931.50;5006969;28;20030;-78
2023/02/05 02:29:02;;;;;;;2.40;1.42;;;;;;;-1.87;100.00;101064.03;5003172;28;20061;-78
2023/02/05 02:31:53;;;;;;;3.90;1.98;;;;;;;-1.74;100.00;101115.44;5004732;28;20575;-76
2023/02/05 02:34:31;;;;;;;3.33;1.83;;;;;;;-2.90;100.00;100921.56;5004763;28;20041;-76
2023/02/05 02:37:07;;;;;;;4.15;2.33;;;;;;;-1.73;100.00;101132.69;4992409;28;20056;-76
2023/02/05 02:39:43;;;;;;;5.35;3.97;;;;;;;-1.97;100.00;101084.09;4998738;28;20046;-78
2023/02/05 02:42:16;;;;;;;5.28;2.40;;;;;;;-1.79;100.00;101111.72;5008141;28;20072;-79
2023/02/05 02:45:10;;;;;;;3.38;1.52;;;;;;;-1.79;100.00;101115.16;4997810;28;20046;-78
2023/02/05 02:47:47;;;;;;;3.03;1.70;;;;;;;-2.03;100.00;101075.09;5005652;28;20038;-77
2023/02/05 02:50:22;;;;;;;3.30;1.60;;;;;;;-1.78;100.00;101119.53;5005896;28;20033;-78
2023/02/05 02:52:50;;;;;;;7.45;2.10;;;;;;;-1.92;100.00;101099.75;5003336;28;20034;-77
2023/02/05 02:55:19;;;;;;;5.03;3.10;;;;;;;-2.12;100.00;101037.75;5010805;28;20056;-76
2023/02/05 02:57:47;;;;;;;2.90;1.45;;;;;;;-2.59;100.00;100980.88;5011157;28;20080;-77
2023/02/05 03:00:21;;;;;;;1.95;1.00;;;;;;;-1.72;100.00;101119.88;5007448;28;20093;-78
2023/02/05 03:02:49;;;;;;;2.35;1.55;;;;;;;-2.28;100.00;101023.88;5011207;28;20057;-76
2023/02/05 03:05:19;;;;;;;2.65;1.35;;;;;;;-1.65;100.00;101144.31;4999128;28;20042;-77
2023/02/05 03:07:53;;;;;;;2.78;1.42;;;;;;;-1.86;100.00;101138.72;5006311;28;20034;-77
2023/02/05 03:10:43;;;;;;;4.60;1.98;;;;;;;-1.71;100.00;101167.97;5008594;28;20072;-77
2023/02/05 03:13:10;;;;;;;2.67;1.23;;;;;;;-1.98;100.00;101117.41;5006943;28;20042;-77
2023/02/05 03:15:41;;;;;;;2.42;1.45;;;;;;;-2.43;100.00;101057.22;5009825;28;20061;-76
2023/02/05 03:18:07;;;;;;;1.95;1.08;;;;;;;-2.00;100.00;101121.56;5011448;28;20785;-76
2023/02/05 03:20:40;;;;;;;1.63;1.15;;;;;;;-1.84;100.00;101162.00;5001741;28;20075;-78
2023/02/05 03:23:05;;;;;;;13.43;1.83;;;;;;;-2.49;100.00;101055.16;5002980;28;20073;-78
2023/02/05 03:25:31;;;;;;;2.08;1.33;;;;;;;-1.75;100.00;101193.44;4991312;28;20509;-78
2023/02/05 03:27:58;;;;;;;3.42;1.40;;;;;;;-1.70;100.00;101202.31;4995664;28;20046;-77
2023/02/05 03:30:30;;;;;;;2.05;1.42;;;;;;;-2.47;100.00;101063.84;4990955;28;20510;-77
2023/02/05 03:33:04;;;;;;;1.45;1.00;;;;;;;-1.76;100.00;101196.78;4996633;28;20056;-76
2023/02/05 03:35:44;;;;;;;2.80;1.23;;;;;;;-2.10;100.00;101157.81;4998053;28;20542;-76
2023/02/05 03:38:28;;;;;;;4.60;3.40;;;;;;;-1.79;100.00;101217.16;4999823;28;20284;-76
2023/02/05 03:41:02;;;;;;;3.58;2.15;;;;;;;-1.93;100.00;101195.72;5007175;28;20486;-76
2023/02/05 03:43:43;;;;;;;2.08;1.70;;;;;;;-1.91;100.00;101225.00;4996437;28;20457;-77
2023/02/05 03:46:38;;;;;;;2.25;1.25;;;;;;;-2.07;100.00;101188.84;5001485;28;20112;-75
2023/02/05 03:49:09;;;;;;;2.28;1.05;;;;;;;-1.91;100.00;101231.03;4992462;28;20829;-78
2023/02/05 03:51:50;;;;;;;1.90;0.98;;;;;;;-1.88;100.00;101247.44;5004834;28;20051;-75
2023/02/05 03:54:36;;;;;;;3.70;1.92;;;;;;;-1.90;100.00;101244.78;5003720;28;20537;-78
2023/02/05 03:57:15;;;;;;;3.25;2.00;;;;;;;-2.41;100.00;101146.47;5003844;28;20049;-76
2023/02/05 03:59:42;;;;;;;2.97;1.48;;;;;;;-2.83;100.00;101063.28;5001785;28;20050;-79
2023/02/05 04:02:08;;;;;;;2.10;1.20;;;;;;;-1.98;100.00;101239.16;4993348;28;20065;-76
2023/02/05 04:04:33;;;;;;;2.03;1.33;;;;;;;-2.20;100.00;101200.00;4997768;28;20208;-77
2023/02/05 04:06:59;;;;;;;2.22;1.33;;;;;;;-3.45;100.00;101003.63;4993312;28;20050;-80
2023/02/05 04:09:24;;;;;;;2.47;1.65;;;;;;;-2.03;100.00;101248.25;4994147;28;20092;-78
2023/02/05 04:11:49;;;;;;;7.30;1.60;;;;;;;-2.00;100.00;101263.88;4998430;28;21103;-77
2023/02/05 04:14:15;;;;;;;2.50;1.67;;;;;;;-2.71;100.00;101147.94;5001773;28;20029;-77
2023/02/05 04:16:41;;;;;;;5.57;2.03;;;;;;;-2.24;100.00;101241.75;5010305;28;20042;-78
2023/02/05 04:19:06;;;;;;;3.17;2.20;;;;;;;-2.02;100.00;101280.88;5006137;28;20045;-77
2023/02/05 04:21:32;;;;;;;3.13;1.73;;;;;;;-2.41;100.00;101214.94;5009540;28;20129;-77
2023/02/05 04:23:57;;;;;;;2.38;1.15;;;;;;;-2.12;100.00;101269.13;5009518;28;20080;-77
2023/02/05 04:26:22;;;;;;;3.35;1.80;;;;;;;-2.82;100.00;101160.06;5008388;28;20046;-77
2023/02/05 04:28:48;;;;;;;2.65;1.42;;;;;;;-2.02;100.00;101285.16;5005439;28;20049;-77
2023/02/05 04:31:13;;;;;;;3.85;1.67;;;;;;;-2.78;100.00;101158.59;4999947;28;20468;-75
2023/02/05 04:33:40;;;;;;;2.08;1.02;;;;;;;-2.06;100.00;101296.00;5009154;28;20165;-76
2023/02/05 04:36:07;;;;;;;4.45;2.30;;;;;;;-2.14;100.00;101288.69;5005904;28;20042;-76
2023/02/05 04:38:33;;;;;;;4.03;1.52;;;;;;;-2.71;100.00;101194.19;5007760;28;20045;-76
2023/02/05 04:40:59;;;;;;;5.03;2.17;;;;;;;-2.79;100.00;101151.69;5009475;28;20026;-75
2023/02/05 04:43:25;;;;;;;2.67;1.45;;;;;;;-2.66;100.00;101186.78;4997526;28;20504;-76
2023/02/05 04:45:50;;;;;;;7.57;4.50;;;;;;;-2.08;100.00;101306.22;5017430;28;20054;-79
2023/02/05 04:48:16;;;;;;;3.42;1.50;;;;;;;-2.06;100.00;101306.28;5008828;28;20042;-76
2023/02/05 04:50:42;;;;;;;2.78;1.70;;;;;;;-2.67;100.00;101209.00;5001156;28;20117;-78
2023/02/05 04:53:07;;;;;;;2.15;1.45;;;;;;;-2.15;100.00;101302.34;5002611;28;20040;-76
2023/02/05 04:55:33;;;;;;;3.38;1.73;;;;;;;-2.28;100.00;101281.78;5005612;28;20053;-77
2023/02/05 04:57:58;;;;;;;6.70;1.30;;;;;;;-2.15;100.00;101309.19;4997521;28;20182;-75
2023/02/05 05:00:25;;;;;;;3.65;1.63;;;;;;;-2.78;100.00;101198.00;5000348;28;20410;-77
2023/02/05 05:02:51;;;;;;;9.13;2.03;;;;;;;-2.08;100.00;101310.44;5006819;28;20115;-78
2023/02/05 05:05:17;;;;;;;5.05;2.08;;;;;;;-2.13;100.00;101317.88;5005036;28;20037;-77
2023/02/05 05:07:43;;;;;;;3.90;2.00;;;;;;;-2.15;100.00;101320.34;5001375;28;20096;-78
2023/02/05 05:10:10;;;;;;;4.10;2.28;;;;;;;-3.02;100.00;101161.34;5003359;28;20037;-78
2023/02/05 05:12:36;;;;;;;2.05;1.40;;;;;;;-2.17;100.00;101321.03;4994496;28;20502;-77
2023/02/05 05:15:04;;;;;;;4.25;1.50;;;;;;;-2.27;100.00;101308.34;5002302;28;20088;-79
2023/02/05 05:17:31;;;;;;;4.72;2.55;;;;;;;-2.74;100.00;101208.47;5000575;28;20054;-77
2023/02/05 05:19:57;;;;;;;5.18;2.55;;;;;;;-2.43;100.00;101283.34;5007477;28;20033;-76
2023/02/05 05:22:22;;;;;;;3.63;1.73;;;;;;;-2.95;100.00;101192.53;5004509;28;20046;-77
2023/02/05 05:24:48;;;;;;;3.40;2.03;;;;;;;-2.35;100.00;101324.16;5008583;28;20041;-77
2023/02/05 05:27:13;;;;;;;3.60;2.15;;;;;;;-2.25;100.00;101335.06;5008409;28;20038;-76
2023/02/05 05:29:39;;;;;;;5.15;2.50;;;;;;;-2.48;100.00;101302.69;5006199;28;20042;-76
2023/02/05 05:32:04;;;;;;;5.15;2.72;;;;;;;-2.43;100.00;101312.50;5010540;28;20025;-77
2023/02/05 05:34:30;;;;;;;6.43;3.08;;;;;;;-2.21;100.00;101355.03;5000318;28;20826;-75
2023/02/05 05:36:55;;;;;;;4.28;2.60;;;;;;;-2.36;100.00;101348.09;5005312;28;20502;-78
2023/02/05 05:44:53;;;;;;;9.75;2.63;;;;;;;-2.44;100.00;101363.78;5000526;28;20111;-75
2023/02/05 05:47:19;;;;;;;8.20;2.53;;;;;;;-2.86;100.00;101298.44;5004049;28;20080;-76
2023/02/05 05:49:44;;;;;;;6.97;2.83;;;;;;;-3.29;100.00;101226.22;4995016;28;20350;-77
2023/02/05 05:52:10;;;;;;;3.03;1.63;;;;;;;-2.47;100.00;101387.59;4996211;28;20057;-77
2023/02/05 05:54:35;;;;;;;5.57;2.33;;;;;;;-2.40;100.00;101414.59;5000025;28;20058;-78
2023/02/05 05:57:02;;;;;;;8.00;2.75;;;;;;;-2.50;100.00;101407.06;5007772;28;20049;-77
2023/02/05 05:59:27;;;;;;;4.72;2.53;;;;;;;-2.63;100.00;101395.91;5004792;28;20037;-77
2023/02/05 06:01:53;;;;;;;8.43;3.20;;;;;;;-2.51;100.00;101420.69;5008540;28;20064;-77
2023/02/05 06:04:18;;;;;;;7.40;3.30;;;;;;;-2.52;100.00;101430.06;5005572;28;20429;-78
2023/02/05 06:06:43;;;;;;;7.22;3.03;;;;;;;-3.35;100.00;101275.41;5005165;28;20073;-79
2023/02/05 06:09:10;;;;;;;5.53;3.30;;;;;;;-2.53;100.00;101417.09;4997851;28;20462;-78
2023/02/05 06:11:36;;;;;;;5.10;2.17;;;;;;;-2.55;100.00;101414.44;5007735;28;20038;-78
2023/02/05 06:14:01;;;;;;;9.05;3.15;;;;;;;-2.60;100.00;101424.41;5005928;28;20040;-77
2023/02/05 06:16:27;;;;;;;5.10;3.60;;;;;;;-3.23;100.00;101319.00;5006812;28;20466;-78
2023/02/05 06:18:54;;;;;;;6.80;3.00;;;;;;;-3.21;100.00;101320.00;5007126;28;20041;-78
2023/02/05 06:21:19;;;;;;;4.57;2.95;;;;;;;-2.79;100.00;101411.06;5005150;28;20088;-77
2023/02/05 06:23:45;;;;;;;7.07;4.20;;;;;;;-2.71;100.00;101422.78;5004079;28;20065;-79
2023/02/05 06:26:10;;;;;;;8.10;3.42;;;;;;;-2.90;100.00;101394.91;5007493;28;20052;-78
2023/02/05 06:28:36;;;;;;;3.78;2.17;;;;;;;-2.83;100.00;101414.22;5004738;28;20037;-79
2023/02/05 06:31:02;;;;;;;7.28;3.17;;;;;;;-2.95;100.00;101386.00;4996793;28;20123;-78
2023/02/05 06:33:27;;;;;;;5.30;2.35;;;;;;;-2.98;100.00;101373.81;4991927;28;20064;-79
2023/02/05 06:35:53;;;;;;;6.57;3.28;;;;;;;-3.02;100.00;101363.22;4994620;28;20486;-81
2023/02/05 06:38:18;;;;;;;6.90;3.83;;;;;;;-2.87;100.00;101404.50;5005349;28;20046;-78
2023/02/05 06:40:44;;;;;;;11.05;3.85;;;;;;;-2.66;100.00;101446.22;4999340;28;20892;-80
2023/02/05 06:43:09;;;;;;;8.38;3.63;;;;;;;-3.32;100.00;101303.88;5002804;28;20051;-77
2023/02/05 06:45:34;;;;;;;4.82;2.75;;;;;;;-3.15;100.00;101327.25;5003638;28;20069;-78
2023/02/05 06:48:00;;;;;;;8.70;5.05;;;;;;;-2.45;100.00;101428.81;5002791;28;20050;-77
2023/02/05 06:50:26;;;;;;;8.52;3.47;;;;;;;-2.55;100.00;101445.28;4997032;28;20089;-77
2023/02/05 06:52:51;;;;;;;9.75;3.83;;;;;;;-2.42;100.00;101452.16;5001243;28;20062;-76
2023/02/05 06:55:17;;;;;;;9.23;3.97;;;;;;;-2.68;100.00;101407.56;4998600;28;20054;-79
2023/02/05 06:57:43;;;;;;;6.25;3.35;;;;;;;-2.46;100.00;101451.06;5006671;28;20481;-78
2023/02/05 07:00:10;;;;;;;6.22;3.40;;;;;;;-2.63;100.00;101425.88;5004592;28;20073;-79
2023/02/05 07:02:35;;;;;;;6.82;2.97;;;;;;;-3.43;100.00;101279.13;4998643;28;20433;-75
2023/02/05 07:05:01;;;;;;;6.20;2.88;;;;;;;-3.22;100.00;101305.41;4994497;28;20068;-86
2023/02/05 07:07:27;;;;;;;11.85;3.95;;;;;;;-2.43;100.00;101458.09;4996104;28;20125;-77
2023/02/05 07:09:52;;;;;;;6.80;3.05;;;;;;;-2.34;100.00;101461.28;4998699;28;20052;-74
2023/02/05 07:12:18;;;;;;;8.52;3.58;;;;;;;-2.28;100.00;101471.09;5001835;28;20061;-75
2023/02/05 07:14:43;;;;;;;3.95;2.30;;;;;;;-3.02;100.00;101320.50;4999980;28;20242;-74
2023/02/05 07:17:09;;;;;;;6.60;2.97;;;;;;;-2.20;100.00;101478.53;5001128;28;20410;-74
2023/02/05 07:19:35;;;;;;;4.55;3.22;;;;;;;-2.53;100.00;101399.13;5003066;28;20441;-77
2023/02/05 07:22:00;;;;;;;6.43;2.55;;;;;;;-2.67;100.00;101355.41;4993652;28;20054;-74
2023/02/05 07:24:26;;;;;;;5.65;3.20;;;;;;;-1.80;100.00;101468.38;4999829;28;20054;-76
2023/02/05 07:26:51;;;;;;;6.15;3.60;;;;;;;-1.98;100.00;101478.31;4994923;28;20050;-74
2023/02/05 07:29:17;;;;;;;6.55;2.92;;;;;;;-1.75;100.00;101481.53;5003842;28;20030;-74
2023/02/05 07:31:42;;;;;;;15.35;4.10;;;;;;;-1.71;100.00;101481.84;5002446;28;20953;-75
2023/02/05 07:34:08;;;;;;;4.13;2.85;;;;;;;-2.46;100.00;101342.22;5004379;28;20048;-75
2023/02/05 07:36:33;;;;;;;5.97;3.35;;;;;;;-2.51;100.00;101339.34;4993732;28;20513;-74
2023/02/05 07:38:59;;;;;;;9.40;4.70;;;;;;;-1.70;100.00;101493.03;5003064;28;20042;-76
2023/02/05 07:41:27;;;;;;;7.15;2.40;;;;;;;-2.48;100.00;101356.63;5004829;28;20042;-75
2023/02/05 07:43:53;;;;;;;4.57;2.97;;;;;;;-2.24;100.00;101388.25;4999557;28;20041;-75
2023/02/05 07:46:20;;;;;;;6.72;3.05;;;;;;;-2.16;100.00;101394.78;4992124;28;20518;-75
2023/02/05 07:48:46;;;;;;;4.80;2.92;;;;;;;-2.31;100.00;101308.97;5008918;28;20062;-73
2023/02/05 07:51:20;;;;;;;4.22;2.10;;;;;;;-1.73;100.00;101462.84;5004384;28;20050;-75
2023/02/05 07:53:46;;;;;;;5.35;3.47;;;;;;;-1.73;100.00;101449.97;5003863;28;20111;-75
2023/02/05 07:56:12;;;;;;;4.93;2.65;;;;;;;-1.70;100.00;101490.47;5006997;28;20038;-75
2023/02/05 07:58:38;;;;;;;6.07;2.60;;;;;;;-2.30;100.00;101347.59;5009644;28;20037;-74
2023/02/05 08:01:04;;;;;;;4.15;2.55;;;;;;;-1.53;100.00;101492.44;4998166;28;20049;-75
2023/02/05 08:03:30;;;;;;;6.20;2.80;;;;;;;-1.74;100.00;101452.44;5001885;28;20128;-75
2023/02/05 08:05:56;;;;;;;4.43;1.92;;;;;;;-1.67;100.00;101466.59;4995201;28;20157;-76
2023/02/05 08:08:22;;;;;;;6.10;4.00;;;;;;;-1.41;100.00;101499.19;5000080;28;20141;-75
2023/02/05 08:10:56;;;;;;;5.72;4.03;;;;;;;-1.36;100.00;101508.09;5002997;28;20041;-77
2023/02/05 08:13:22;;;;;;;;;;;;;;;-1.30;100.00;101500.81;5002753;28;20730;-74
2023/02/05 08:15:48;;;;;;;4.03;2.47;;;;;;;-1.34;100.00;101506.53;4998665;28;20411;-78
2023/02/05 08:18:15;;;;;;;5.22;3.20;;;;;;;-2.09;100.00;101357.53;5007359;28;20092;-74
2023/02/05 08:20:40;;;;;;;3.65;2.15;;;;;;;-1.95;100.00;101414.22;4993891;28;20107;-74
2023/02/05 08:23:06;;;;;;;4.68;2.08;;;;;;;-1.16;100.00;101506.84;5001374;28;20352;-76
2023/02/05 08:25:31;;;;;;;10.43;2.45;;;;;;;-1.85;100.00;101382.31;5007315;28;20030;-77
2023/02/05 08:27:57;;;;;;;4.40;2.17;;;;;;;-2.03;100.00;101397.41;5001983;28;20062;-75
2023/02/05 08:30:22;;;;;;;6.13;3.15;;;;;;;-2.20;99.98;101359.38;5005594;28;20723;-75
2023/02/05 08:32:49;;;;;;;11.77;1.70;;;;;;;-1.25;99.30;101526.84;5006466;28;20097;-76
2023/02/05 08:35:15;;;;;;;7.60;4.57;;;;;;;-1.96;96.74;101411.56;5007404;28;20034;-74
2023/02/05 08:37:40;;;;;;;4.05;2.53;;;;;;;-1.99;92.80;101443.09;4995066;28;20431;-75
2023/02/05 08:40:06;;;;;;;7.50;3.33;;;;;;;-1.29;92.03;101531.81;5000233;28;20058;-76
2023/02/05 08:42:32;;;;;;;6.15;3.22;;;;;;;-1.80;89.30;101392.91;5002952;28;20135;-75
2023/02/05 08:44:58;;;;;;;3.97;2.15;;;;;;;-1.84;87.38;101452.63;5004763;28;20425;-75
2023/02/05 08:47:25;;;;;;;4.95;3.20;;;;;;;-1.35;85.87;101513.38;5002207;28;20148;-77
2023/02/05 08:49:50;;;;;;;3.17;1.45;;;;;;;-1.54;83.67;101479.50;5006165;28;20037;-76
2023/02/05 08:52:16;;;;;;;4.60;2.80;;;;;;;-1.42;81.26;101531.78;5009061;28;20399;-75
2023/02/05 08:54:42;;;;;;;8.85;1.38;;;;;;;-1.92;80.96;101428.94;5007986;28;20065;-74
2023/02/05 08:57:07;;;;;;;5.85;2.92;;;;;;;-2.03;76.89;101397.41;5003416;28;20042;-75
2023/02/05 08:59:34;;;;;;;4.85;1.90;;;;;;;-1.24;77.47;101502.88;5014538;28;20050;-74
2023/02/05 09:02:00;;;;;;;4.55;2.10;;;;;;;-1.82;75.62;101433.06;5008550;28;20036;-75
2023/02/05 09:04:26;;;;;;;5.05;2.60;;;;;;;-1.26;74.60;101538.84;5004112;28;20069;-75
2023/02/05 09:06:52;;;;;;;4.40;2.35;;;;;;;-1.45;71.85;101492.97;5002486;28;20049;-75
2023/02/05 09:09:17;;;;;;;2.42;1.42;;;;;;;-1.58;71.54;101474.94;5004748;28;20058;-75
2023/02/05 09:11:45;;;;;;;3.90;2.05;;;;;;;-1.83;73.92;101436.41;5002562;28;20041;-76
2023/02/05 09:14:12;;;;;;;5.35;1.92;;;;;;;-1.40;73.80;101522.47;5007363;28;20042;-73
2023/02/05 09:16:38;;;;;;;3.70;1.70;;;;;;;-1.42;71.73;101516.34;4999395;28;20425;-75
2023/02/05 09:19:04;;;;;;;3.17;1.98;;;;;;;-1.20;71.74;101546.06;5003615;28;20227;-75
2023/02/05 09:21:29;;;;;;;4.22;2.45;;;;;;;-1.11;71.78;101552.69;5006445;28;20056;-76
2023/02/05 09:23:56;;;;;;;4.88;1.98;;;;;;;-0.96;72.22;101547.66;5006861;28;20490;-79
2023/02/05 09:26:23;;;;;;;4.43;1.65;;;;;;;-1.11;73.94;101508.91;5001024;28;20042;-77
2023/02/05 09:28:48;;;;;;;5.20;3.33;;;;;;;-0.82;73.64;101550.22;4998309;28;20056;-78
2023/02/05 09:31:19;;;;;;;6.10;2.65;;;;;;;-1.97;71.77;101379.81;5006347;28;20046;-78
2023/02/05 09:33:45;;;;;;;3.63;1.42;;;;;;;-1.93;71.78;101401.47;4999719;28;20532;-77
2023/02/05 09:36:17;;;;;;;4.68;2.17;;;;;;;-1.92;71.65;101409.28;5002350;28;20076;-78
2023/02/05 09:38:44;;;;;;;3.45;1.80;;;;;;;-1.29;70.88;101541.19;4992276;28;20058;-77
2023/02/05 09:41:12;;;;;;;3.03;1.75;;;;;;;-1.17;70.27;101554.88;5008366;28;20037;-78
2023/02/05 09:43:38;;;;;;;3.10;1.58;;;;;;;-0.92;69.42;101557.34;5002758;28;20075;-75
2023/02/05 09:46:25;;;;;;;4.57;2.33;;;;;;;-0.82;71.76;101538.25;4998753;28;20046;-78
2023/02/05 09:49:02;;;;;;;3.95;2.25;;;;;;;-0.89;72.96;101548.94;5000634;28;20050;-78
2023/02/05 09:51:33;;;;;;;6.63;2.08;;;;;;;-0.65;71.04;101547.94;4998513;28;20038;-77
2023/02/05 09:54:05;;;;;;;6.38;1.98;;;;;;;-1.55;69.41;101388.50;4994609;28;20050;-80
2023/02/05 09:56:31;;;;;;;1.70;1.25;;;;;;;-1.16;67.83;101528.34;4994172;28;20046;-77
2023/02/05 09:58:58;;;;;;;3.22;1.67;;;;;;;-0.91;70.05;101514.47;4994112;28;20038;-78
2023/02/05 10:01:48;;;;;;;3.60;1.70;;;;;;;-0.93;68.70;101552.13;5005737;28;20085;-75
2023/02/05 10:04:15;;;;;;;5.28;1.50;;;;;;;-1.61;67.39;101429.31;4998504;28;20794;-77
2023/02/05 10:06:56;;;;;;;4.03;1.83;;;;;;;-1.07;64.47;101538.34;5000015;28;20051;-77
2023/02/05 10:10:01;;;;;;;3.50;1.95;;;;;;;-1.17;64.48;101548.81;4995697;28;20054;-76
2023/02/05 10:13:02;;;;;;;10.13;2.58;;;;;;;-0.99;65.81;101541.41;4999760;28;20065;-76
2023/02/05 10:15:49;;;;;;;3.03;1.38;;;;;;;-0.84;66.14;101550.16;4971307;28;20066;-79
2023/02/05 10:18:30;;;;;;;4.03;1.63;;;;;;;-0.84;64.72;101557.88;4984245;28;20116;-76
2023/02/05 10:21:01;;;;;;;3.85;1.88;;;;;;;-0.89;63.85;101546.34;4996346;28;20053;-79
2023/02/05 10:23:39;;;;;;;3.85;2.25;;;;;;;-0.95;64.35;101548.56;4998712;28;20042;-77
2023/02/05 10:26:12;;;;;;;4.38;2.08;;;;;;;-1.75;64.26;101400.09;4991664;28;20027;-77
2023/02/05 10:29:15;;;;;;;3.97;2.60;;;;;;;-1.00;62.53;101543.09;4999771;28;20120;-77
2023/02/05 10:31:59;;;;;;;8.55;2.88;;;;;;;-1.28;62.36;101473.47;4993114;28;20057;-78
2023/02/05 10:34:53;;;;;;;4.40;3.00;;;;;;;-0.86;62.52;101542.31;4995144;28;20140;-77
2023/02/05 10:37:51;;;;;;;4.07;2.08;;;;;;;-1.50;62.03;101388.81;4997949;28;20096;-77
2023/02/05 10:40:20;;;;;;;4.72;2.63;;;;;;;-0.85;61.00;101538.91;5001095;28;20050;-80
2023/02/05 10:43:00;;;;;;;5.20;2.90;;;;;;;-0.95;62.29;101486.72;4995503;28;20069;-78
2023/02/05 10:45:27;;;;;;;4.70;2.50;;;;;;;-1.07;62.71;101399.28;5001320;28;20058;-76
2023/02/05 10:48:23;;;;;;;6.13;1.95;;;;;;;-0.33;63.42;101535.28;4994493;28;20056;-77
2023/02/05 10:51:01;;;;;;;4.47;2.17;;;;;;;-0.41;63.11;101526.19;4994665;28;20505;-78
2023/02/05 10:53:28;;;;;;;3.50;1.50;;;;;;;-1.38;61.12;101379.31;4992652;28;20045;-77
2023/02/05 10:55:55;;;;;;;2.97;1.50;;;;;;;-1.00;59.66;101489.00;4995993;28;20129;-76
2023/02/05 10:58:42;;;;;;;2.95;1.40;;;;;;;-0.96;58.96;101521.91;5001291;28;20054;-79
2023/02/05 11:01:16;;;;;;;17.58;5.88;;;;;;;-1.66;59.62;101386.97;4992395;28;20054;-78
2023/02/05 11:03:59;;;;;;;4.38;2.08;;;;;;;-0.68;59.38;101541.69;4993261;28;20075;-78
2023/02/05 11:06:28;;;;;;;4.57;2.72;;;;;;;-0.90;60.99;101475.03;4992828;28;20055;-79
2023/02/05 11:08:54;;;;;;;6.38;2.47;;;;;;;-1.25;62.31;101400.69;4999447;28;20074;-78
2023/02/05 11:11:27;;;;;;;3.85;1.75;;;;;;;-0.48;62.39;101543.84;5002622;28;20149;-78
2023/02/05 11:13:54;;;;;;;;;;;;;;;-0.35;62.30;101544.59;5003811;28;20034;-77
2023/02/05 11:16:21;;;;;;;3.95;1.90;;;;;;;-1.25;62.08;101404.16;5005430;28;19952;-76
2023/02/05 11:18:57;;;;;;;4.35;2.17;;;;;;;-0.35;64.22;101542.00;5004905;28;20054;-78
2023/02/05 11:21:22;;;;;;;4.57;2.33;;;;;;;0.16;64.44;101527.94;4997801;28;20053;-77
2023/02/05 11:23:56;;;;;;;6.28;2.25;;;;;;;-0.97;62.08;101488.31;4998542;28;20092;-76
2023/02/05 11:26:24;;;;;;;4.68;1.80;;;;;;;-0.31;61.49;101539.72;5003668;28;20053;-81
2023/02/05 11:28:49;;;;;;;4.28;2.33;;;;;;;-0.41;62.10;101532.22;5009715;28;20057;-77
2023/02/05 11:31:20;;;;;;;7.00;3.05;;;;;;;-0.24;62.11;101534.16;5001953;28;20039;-80
2023/02/05 11:33:47;;;;;;;3.92;2.25;;;;;;;-0.23;63.48;101530.78;5005830;28;20056;-79